createdAt,value
2022-12-15T00:02:19.776Z,28.60
2022-12-15T00:05:06.370Z,34.00
2022-12-15T00:07:52.647Z,30.58
2022-12-15T00:10:38.393Z,31.45
2022-12-15T00:13:31.702Z,32.65
2022-12-15T00:16:17.996Z,34.03
2022-12-15T00:19:03.541Z,29.55
2022-12-15T00:21:49.559Z,32.15
2022-12-15T00:24:35.673Z,32.03
2022-12-15T00:27:21.415Z,31.10
2022-12-15T00:30:06.829Z,29.85
2022-12-15T00:32:52.097Z,29.30
2022-12-15T00:35:37.722Z,30.85
2022-12-15T00:38:41.362Z,32.80
2022-12-15T00:41:08.767Z,30.13
2022-12-15T00:43:36.919Z,31.98
2022-12-15T00:46:22.900Z,32.33
2022-12-15T00:48:50.241Z,28.00
2022-12-15T00:51:17.727Z,32.15
2022-12-15T00:54:04.374Z,30.30
2022-12-15T00:56:50.412Z,31.83
2022-12-15T00:59:36.357Z,32.83
2022-12-15T01:02:22.910Z,29.65
2022-12-15T01:05:08.968Z,28.63
2022-12-15T01:07:55.125Z,32.42
2022-12-15T01:10:40.389Z,30.95
2022-12-15T01:13:26.624Z,31.30
2022-12-15T01:16:12.896Z,29.35
2022-12-15T01:18:58.488Z,28.20
2022-12-15T01:21:25.602Z,29.80
2022-12-15T01:23:53.223Z,29.30
2022-12-15T01:26:20.416Z,30.88
2022-12-15T01:28:47.336Z,30.77
2022-12-15T01:31:14.967Z,33.58
2022-12-15T01:33:43.836Z,29.23
2022-12-15T01:36:11.059Z,32.63
2022-12-15T01:38:38.298Z,36.22
2022-12-15T01:41:08.177Z,32.78
2022-12-15T01:43:37.948Z,31.92
2022-12-15T01:46:05.338Z,34.05
2022-12-15T01:49:03.026Z,38.75
2022-12-15T01:51:35.588Z,24.17
2022-12-15T01:54:02.883Z,32.47
2022-12-15T01:56:37.909Z,30.83
2022-12-15T01:59:09.118Z,35.47
2022-12-15T02:01:36.139Z,32.83
2022-12-15T02:04:03.412Z,34.47
2022-12-15T02:06:30.756Z,34.92
2022-12-15T02:08:59.646Z,36.45
2022-12-15T02:11:42.967Z,36.10
2022-12-15T02:14:11.940Z,40.05
2022-12-15T02:16:47.939Z,35.88
2022-12-15T02:19:35.021Z,34.20
2022-12-15T02:22:14.423Z,33.33
2022-12-15T02:24:52.919Z,38.92
2022-12-15T02:27:39.556Z,34.95
2022-12-15T02:30:17.630Z,33.80
2022-12-15T02:32:55.198Z,40.90
2022-12-15T02:35:29.210Z,36.57
2022-12-15T02:37:56.085Z,34.35
2022-12-15T02:40:23.383Z,33.08
2022-12-15T02:42:54.646Z,35.13
2022-12-15T02:45:35.739Z,38.35
2022-12-15T02:48:34.490Z,36.25
2022-12-15T02:51:24.231Z,34.45
2022-12-15T02:54:09.992Z,35.92
2022-12-15T02:57:15.446Z,36.00
2022-12-15T02:59:57.039Z,40.03
2022-12-15T03:02:28.700Z,38.85
2022-12-15T03:04:56.711Z,37.45
2022-12-15T03:07:27.974Z,32.05
2022-12-15T03:09:56.981Z,35.13
2022-12-15T03:12:23.945Z,34.63
2022-12-15T03:14:51.042Z,38.13
2022-12-15T03:17:17.943Z,36.45
2022-12-15T03:19:45.198Z,36.75
2022-12-15T03:22:12.510Z,35.08
2022-12-15T03:24:39.819Z,34.92
2022-12-15T03:27:07.106Z,38.15
2022-12-15T03:29:34.358Z,37.80
2022-12-15T03:32:01.299Z,32.90
2022-12-15T03:34:28.193Z,36.33
2022-12-15T03:36:55.032Z,32.42
2022-12-15T03:39:22.309Z,32.88
2022-12-15T03:41:49.667Z,35.50
2022-12-15T03:44:16.961Z,29.77
2022-12-15T03:46:43.980Z,31.42
2022-12-15T03:49:10.884Z,30.25
2022-12-15T03:51:37.873Z,30.95
2022-12-15T03:54:04.787Z,28.48
2022-12-15T03:56:32.557Z,33.97
2022-12-15T03:58:59.399Z,32.55
2022-12-15T04:01:31.420Z,30.55
2022-12-15T04:04:01.220Z,33.72
2022-12-15T04:06:29.585Z,34.60
2022-12-15T04:08:56.476Z,31.20
2022-12-15T04:11:23.335Z,32.08
2022-12-15T04:13:50.716Z,32.25
2022-12-15T04:16:20.136Z,37.35
2022-12-15T04:19:07.899Z,38.40
2022-12-15T04:21:34.782Z,39.03
2022-12-15T04:24:20.383Z,35.33
2022-12-15T04:27:05.787Z,37.40
2022-12-15T04:29:51.753Z,34.15
2022-12-15T04:32:37.879Z,31.83
2022-12-15T04:35:23.856Z,33.95
2022-12-15T04:38:09.587Z,36.78
2022-12-15T04:40:55.317Z,34.97
2022-12-15T04:43:40.956Z,38.45
2022-12-15T04:46:27.202Z,37.97
2022-12-15T04:49:12.858Z,38.42
2022-12-15T04:51:58.808Z,36.63
2022-12-15T04:54:44.587Z,40.08
2022-12-15T04:57:30.623Z,41.03
2022-12-15T05:00:16.373Z,38.85
2022-12-15T05:03:01.730Z,39.08
2022-12-15T05:05:47.246Z,41.47
2022-12-15T05:08:33.096Z,36.17
2022-12-15T05:11:19.323Z,37.20
2022-12-15T05:14:05.047Z,41.33
2022-12-15T05:16:50.477Z,43.58
2022-12-15T05:19:36.613Z,42.90
2022-12-15T05:22:21.865Z,44.80
2022-12-15T05:25:07.465Z,44.92
2022-12-15T05:27:52.933Z,42.65
2022-12-15T05:30:38.857Z,42.97
2022-12-15T05:33:06.065Z,45.88
2022-12-15T05:35:33.374Z,44.70
2022-12-15T05:38:00.633Z,42.10
2022-12-15T05:40:27.593Z,45.88
2022-12-15T05:42:59.229Z,42.50
2022-12-15T05:45:26.940Z,43.95
2022-12-15T05:47:54.676Z,46.67
2022-12-15T05:50:22.634Z,46.75
2022-12-15T05:52:52.516Z,41.50
2022-12-15T05:55:19.905Z,46.40
2022-12-15T05:57:55.930Z,45.65
2022-12-15T06:00:23.169Z,43.13
2022-12-15T06:02:50.271Z,45.47
2022-12-15T06:05:18.027Z,46.13
2022-12-15T06:07:44.913Z,46.72
2022-12-15T06:10:12.380Z,49.53
2022-12-15T06:12:39.286Z,46.67
2022-12-15T06:15:06.564Z,53.63
2022-12-15T06:17:33.541Z,48.92
2022-12-15T06:20:00.503Z,44.67
2022-12-15T06:22:29.167Z,46.78
2022-12-15T06:24:56.056Z,45.17
2022-12-15T06:27:22.941Z,42.60
2022-12-15T06:29:50.229Z,44.10
2022-12-15T06:32:17.142Z,40.78
2022-12-15T06:34:44.145Z,43.13
2022-12-15T06:37:11.159Z,41.28
2022-12-15T06:39:38.458Z,38.92
2022-12-15T06:42:05.743Z,40.42
2022-12-15T06:44:32.670Z,32.30
2022-12-15T06:47:00.050Z,33.78
2022-12-15T06:49:27.005Z,38.67
2022-12-15T06:51:53.956Z,35.35
2022-12-15T06:54:20.905Z,36.00
2022-12-15T06:56:49.839Z,38.83
2022-12-15T06:59:17.326Z,38.72
2022-12-15T07:01:44.806Z,38.60
2022-12-15T07:04:12.253Z,39.35
2022-12-15T07:06:39.994Z,38.70
2022-12-15T07:09:11.069Z,41.90
2022-12-15T07:11:37.973Z,41.28
2022-12-15T07:14:05.126Z,42.47
2022-12-15T07:16:32.791Z,38.30
2022-12-15T07:19:00.093Z,40.40
2022-12-15T07:21:27.256Z,43.53
2022-12-15T07:23:56.283Z,39.25
2022-12-15T07:26:24.613Z,34.65
2022-12-15T07:28:52.976Z,34.30
2022-12-15T07:33:48.740Z,35.08
2022-12-15T07:36:16.400Z,36.45
2022-12-15T07:38:49.987Z,34.90
2022-12-15T07:41:18.565Z,35.47
2022-12-15T07:43:47.206Z,41.55
2022-12-15T07:46:14.467Z,40.75
2022-12-15T07:48:41.941Z,41.20
2022-12-15T07:51:17.082Z,48.35
2022-12-15T07:53:46.969Z,42.92
2022-12-15T07:56:14.142Z,50.38
2022-12-15T07:58:42.129Z,47.83
2022-12-15T08:01:12.488Z,43.03
2022-12-15T08:03:40.605Z,40.42
2022-12-15T08:08:37.449Z,35.28
2022-12-15T08:11:12.684Z,35.88
2022-12-15T08:16:29.241Z,32.42
2022-12-15T08:18:58.841Z,34.13
2022-12-15T08:21:25.936Z,28.65
2022-12-15T08:23:52.904Z,27.08
2022-12-15T08:26:25.230Z,28.08
2022-12-15T08:29:11.853Z,31.90
2022-12-15T08:31:45.074Z,26.20
2022-12-15T08:34:12.173Z,28.57
2022-12-15T08:36:39.144Z,30.70
2022-12-15T08:39:08.451Z,29.15
2022-12-15T08:41:35.388Z,28.98
2022-12-15T08:44:04.167Z,27.48
2022-12-15T08:46:34.308Z,30.33
2022-12-15T08:49:03.131Z,25.55
2022-12-15T08:51:31.798Z,27.48
2022-12-15T08:54:00.294Z,29.52
2022-12-15T08:58:57.746Z,28.85
2022-12-15T09:01:26.604Z,24.77
2022-12-15T09:03:55.505Z,22.08
2022-12-15T09:06:30.719Z,27.15
2022-12-15T09:08:59.582Z,23.60
2022-12-15T09:11:27.977Z,26.00
2022-12-15T09:13:55.483Z,28.58
2022-12-15T09:16:22.979Z,29.00
2022-12-15T09:18:54.086Z,28.77
2022-12-15T09:21:23.345Z,26.40
2022-12-15T09:23:52.166Z,28.15
2022-12-15T09:26:20.752Z,27.42
2022-12-15T09:28:50.757Z,26.58
2022-12-15T09:31:23.527Z,28.02
2022-12-15T09:33:52.731Z,27.27
2022-12-15T09:36:20.199Z,29.50
2022-12-15T09:38:47.283Z,28.23
2022-12-15T09:41:14.905Z,25.77
2022-12-15T09:43:47.400Z,26.40
2022-12-15T09:46:24.193Z,27.35
2022-12-15T09:48:53.756Z,21.33
2022-12-15T09:51:25.350Z,21.70
2022-12-15T09:53:55.223Z,30.38
2022-12-15T09:56:32.834Z,24.70
2022-12-15T09:59:22.643Z,30.00
2022-12-15T10:02:00.399Z,22.08
2022-12-15T10:05:12.311Z,23.70
2022-12-15T10:07:46.421Z,28.50
2022-12-15T10:10:38.932Z,27.20
2022-12-15T10:13:17.899Z,26.88
